createdAt,value
2023-04-29T00:05:29.688Z,4.40
2023-04-29T00:13:53.354Z,4.41
2023-04-29T00:22:16.448Z,4.42
2023-04-29T00:30:39.556Z,4.41
2023-04-29T00:39:03.276Z,4.35
2023-04-29T00:47:26.251Z,4.27
2023-04-29T00:55:52.124Z,4.21
2023-04-29T01:04:16.529Z,4.20
2023-04-29T01:12:51.116Z,4.24
2023-04-29T01:21:14.404Z,4.33
2023-04-29T01:29:54.362Z,4.33
2023-04-29T01:38:36.533Z,4.27
2023-04-29T01:47:01.882Z,4.09
2023-04-29T01:55:34.454Z,3.84
2023-04-29T02:04:28.916Z,3.59
2023-04-29T02:12:53.292Z,3.42
2023-04-29T02:21:16.896Z,3.29
2023-04-29T02:29:40.080Z,3.27
2023-04-29T02:38:03.062Z,3.29
2023-04-29T02:46:26.125Z,3.32
2023-04-29T02:54:50.046Z,3.36
2023-04-29T03:03:14.165Z,3.42
2023-04-29T03:11:37.830Z,3.53
2023-04-29T03:20:01.997Z,3.68
2023-04-29T03:28:26.258Z,3.87
2023-04-29T03:36:49.325Z,4.10
2023-04-29T03:45:15.402Z,4.25
2023-04-29T03:53:39.039Z,4.45
2023-04-29T04:02:03.107Z,4.97
2023-04-29T04:10:26.847Z,5.16
2023-04-29T04:18:50.789Z,5.35
2023-04-29T04:27:14.533Z,5.61
2023-04-29T04:35:43.549Z,6.09
2023-04-29T04:44:07.354Z,6.68
2023-04-29T04:52:43.568Z,7.05
2023-04-29T05:01:30.120Z,7.13
2023-04-29T05:09:53.647Z,7.32
2023-04-29T05:18:18.141Z,7.66
2023-04-29T05:26:44.344Z,7.90
2023-04-29T05:35:08.744Z,8.27
2023-04-29T05:43:32.861Z,8.78
2023-04-29T05:51:56.804Z,9.26
2023-04-29T06:00:20.727Z,9.64
2023-04-29T06:08:44.221Z,9.79
2023-04-29T06:17:12.919Z,9.93
2023-04-29T06:25:36.343Z,10.08
2023-04-29T06:34:02.006Z,10.42
2023-04-29T06:42:25.937Z,11.09
2023-04-29T06:51:09.201Z,11.99
2023-04-29T06:59:33.942Z,12.81
2023-04-29T07:08:00.147Z,13.29
2023-04-29T07:16:26.761Z,13.33
2023-04-29T07:24:53.822Z,12.97
2023-04-29T07:33:18.224Z,12.62
2023-04-29T07:41:42.208Z,12.62
2023-04-29T07:50:07.243Z,13.08
2023-04-29T07:58:30.300Z,13.62
2023-04-29T08:06:53.867Z,13.83
2023-04-29T08:15:18.624Z,14.37
2023-04-29T08:23:41.693Z,15.15
2023-04-29T08:32:05.314Z,15.50
2023-04-29T08:40:28.339Z,15.68
2023-04-29T08:48:52.648Z,15.56
2023-04-29T08:57:16.743Z,15.58
2023-04-29T09:05:41.982Z,15.77
2023-04-29T09:14:05.032Z,16.02
2023-04-29T09:22:48.269Z,16.30
2023-04-29T09:31:12.652Z,16.67
2023-04-29T09:39:40.290Z,17.02
2023-04-29T09:48:05.237Z,17.23
2023-04-29T09:56:30.900Z,16.91
2023-04-29T10:04:57.948Z,16.87
2023-04-29T10:13:21.806Z,17.24
2023-04-29T10:21:45.213Z,17.44
2023-04-29T10:30:12.924Z,17.64
2023-04-29T10:38:59.070Z,17.87
2023-04-29T10:47:22.226Z,18.07
2023-04-29T10:55:53.739Z,18.02
2023-04-29T11:04:19.103Z,17.87
2023-04-29T11:12:42.209Z,17.92
2023-04-29T11:21:08.097Z,17.71
2023-04-29T11:29:32.896Z,17.78
2023-04-29T11:37:56.787Z,17.75
2023-04-29T11:46:19.854Z,17.92
2023-04-29T11:54:42.994Z,18.00
2023-04-29T12:03:20.088Z,17.94
2023-04-29T12:11:44.483Z,18.12
2023-04-29T12:20:12.189Z,18.19
2023-04-29T12:28:35.566Z,18.20
2023-04-29T12:37:02.548Z,17.82
2023-04-29T12:45:30.842Z,17.16
2023-04-29T12:53:53.987Z,17.22
2023-04-29T13:02:17.694Z,17.65
2023-04-29T13:10:40.819Z,18.04
2023-04-29T13:19:17.004Z,17.78
2023-04-29T13:27:47.125Z,17.86
2023-04-29T13:36:10.560Z,17.83
2023-04-29T13:44:47.179Z,18.08
2023-04-29T14:10:07.010Z,17.47
2023-04-29T14:18:30.712Z,17.10
2023-04-29T14:26:53.752Z,16.86
2023-04-29T14:35:16.910Z,16.86
2023-04-29T14:43:39.806Z,16.76
2023-04-29T14:52:02.782Z,16.60
2023-04-29T15:00:26.316Z,16.55
2023-04-29T15:08:49.621Z,16.57
2023-04-29T15:17:12.798Z,16.55
2023-04-29T15:25:36.394Z,16.51
2023-04-29T15:33:59.948Z,16.44
2023-04-29T15:42:22.944Z,16.41
2023-04-29T15:50:46.435Z,16.69
2023-04-29T15:59:09.342Z,16.71
2023-04-29T16:07:33.583Z,16.59
2023-04-29T16:15:57.887Z,16.44
2023-04-29T16:24:21.006Z,16.12
2023-04-29T16:32:44.041Z,15.79
2023-04-29T16:41:07.504Z,15.54
2023-04-29T16:49:31.321Z,15.36
2023-04-29T16:57:54.322Z,15.23
2023-04-29T17:06:17.737Z,15.09
2023-04-29T17:14:40.869Z,14.89
2023-04-29T17:23:04.174Z,14.68
2023-04-29T17:31:34.086Z,14.47
2023-04-29T17:39:57.356Z,14.29
2023-04-29T17:48:22.566Z,14.11
2023-04-29T17:56:45.617Z,13.97
2023-04-29T18:05:08.666Z,13.84
2023-04-29T18:13:31.566Z,13.71
2023-04-29T18:21:58.354Z,13.58
2023-04-29T18:30:21.478Z,13.43
2023-04-29T18:38:44.432Z,13.26
2023-04-29T18:47:07.454Z,13.06
2023-04-29T18:55:30.988Z,12.89
2023-04-29T19:03:53.995Z,12.72
2023-04-29T19:12:16.904Z,12.51
2023-04-29T19:20:41.024Z,12.27
2023-04-29T19:29:04.135Z,11.97
2023-04-29T19:37:27.223Z,11.63
2023-04-29T19:45:51.011Z,11.31
2023-04-29T19:54:14.412Z,11.00
2023-04-29T20:02:37.568Z,10.68
2023-04-29T20:11:01.277Z,10.41
2023-04-29T20:19:24.796Z,10.08
2023-04-29T20:27:48.520Z,9.80
2023-04-29T20:36:12.226Z,9.59
2023-04-29T20:44:35.417Z,9.35
2023-04-29T20:52:58.749Z,9.13
2023-04-29T21:01:21.926Z,8.90
2023-04-29T21:09:45.060Z,8.67
2023-04-29T21:18:08.139Z,8.51
2023-04-29T21:26:31.177Z,8.39
2023-04-29T21:34:54.114Z,8.38
2023-04-29T21:43:17.806Z,8.31
2023-04-29T21:51:40.921Z,8.12
2023-04-29T22:00:18.938Z,7.97
2023-04-29T22:08:41.918Z,7.85
2023-04-29T22:17:04.873Z,7.75
2023-04-29T22:25:31.374Z,7.72
2023-04-29T22:33:54.394Z,7.70
2023-04-29T22:42:18.262Z,7.59
2023-04-29T22:50:41.182Z,7.49
2023-04-29T22:59:04.136Z,7.43
2023-04-29T23:07:27.090Z,7.38
2023-04-29T23:15:50.039Z,7.39
2023-04-29T23:24:12.953Z,7.41
2023-04-29T23:32:35.963Z,7.34
2023-04-29T23:40:58.936Z,7.17
2023-04-29T23:49:21.909Z,7.05
2023-04-29T23:57:44.826Z,7.01
